createdAt,value
2018-12-01T00:00:49.057Z,100116.52
2018-12-01T00:03:29.016Z,100120.80
2018-12-01T00:06:08.276Z,100125.64
2018-12-01T00:08:48.766Z,100119.33
2018-12-01T00:11:30.609Z,100120.72
2018-12-01T00:14:09.828Z,100123.20
2018-12-01T00:16:51.460Z,100123.73
2018-12-01T00:19:30.994Z,100127.53
2018-12-01T00:22:11.636Z,100125.23
2018-12-01T00:24:50.801Z,100111.77
2018-12-01T00:27:30.717Z,100102.45
2018-12-01T00:30:16.891Z,100095.28
2018-12-01T00:32:57.981Z,100099.13
2018-12-01T00:35:37.238Z,100089.47
2018-12-01T00:38:19.748Z,100102.13
2018-12-01T00:41:02.199Z,100106.45
2018-12-01T00:43:44.346Z,100103.10
2018-12-01T00:46:24.242Z,100101.73
2018-12-01T00:49:03.706Z,100097.55
2018-12-01T00:51:43.067Z,100097.72
2018-12-01T00:54:23.405Z,100102.05
2018-12-01T00:57:04.263Z,100114.21
2018-12-01T00:59:45.020Z,100115.57
2018-12-01T01:02:29.718Z,100114.90
2018-12-01T01:05:10.158Z,100115.70
2018-12-01T01:07:53.458Z,100111.99
2018-12-01T01:10:37.392Z,100116.62
2018-12-01T01:13:18.200Z,100112.41
2018-12-01T01:15:58.060Z,100108.85
2018-12-01T01:18:38.418Z,100104.84
2018-12-01T01:21:18.459Z,100103.48
2018-12-01T01:23:58.737Z,100088.74
2018-12-01T01:26:37.853Z,100086.66
2018-12-01T01:29:16.787Z,100086.66
2018-12-01T01:31:55.904Z,100086.23
2018-12-01T01:34:35.665Z,100078.36
2018-12-01T01:37:15.232Z,100074.08
2018-12-01T01:39:54.654Z,100070.33
2018-12-01T01:42:33.882Z,100074.88
2018-12-01T01:45:18.276Z,100071.27
2018-12-01T01:48:01.903Z,100074.69
2018-12-01T01:50:41.878Z,100075.19
2018-12-01T01:53:21.254Z,100071.95
2018-12-01T01:56:00.196Z,100064.07
2018-12-01T01:58:40.552Z,100063.67
2018-12-01T02:01:20.967Z,100058.27
2018-12-01T02:04:00.493Z,100052.78
2018-12-01T02:06:40.199Z,100052.33
2018-12-01T02:09:19.547Z,100046.97
2018-12-01T02:11:58.889Z,100054.36
2018-12-01T02:14:38.805Z,100048.36
2018-12-01T02:17:25.608Z,100047.61
2018-12-01T02:20:08.499Z,100047.08
2018-12-01T02:22:47.998Z,100030.56
2018-12-01T02:25:27.459Z,100023.17
2018-12-01T02:28:07.319Z,100021.45
2018-12-01T02:30:46.915Z,100019.14
2018-12-01T02:33:25.890Z,100017.47
2018-12-01T02:36:06.462Z,100012.00
2018-12-01T02:38:46.061Z,100004.72
2018-12-01T02:41:25.930Z,99993.97
2018-12-01T02:44:16.253Z,99988.77
2018-12-01T02:47:10.300Z,99981.81
2018-12-01T02:49:50.066Z,99978.16
2018-12-01T02:52:30.231Z,99962.57
2018-12-01T02:55:09.627Z,99959.12
2018-12-01T02:57:48.742Z,99948.17
2018-12-01T03:00:28.174Z,99942.42
2018-12-01T03:03:07.539Z,99940.37
2018-12-01T03:05:47.058Z,99940.34
2018-12-01T03:08:26.513Z,99926.67
2018-12-01T03:11:06.229Z,99921.45
2018-12-01T03:13:46.441Z,99923.81
2018-12-01T03:16:25.726Z,99912.45
2018-12-01T03:19:05.324Z,99911.88
2018-12-01T03:21:45.514Z,99905.37
2018-12-01T03:24:25.293Z,99904.55
2018-12-01T03:27:04.846Z,99894.09
2018-12-01T03:29:45.397Z,99886.87
2018-12-01T03:32:24.673Z,99881.93
2018-12-01T03:35:05.540Z,99879.98
2018-12-01T03:37:46.876Z,99869.44
2018-12-01T03:40:27.620Z,99865.83
2018-12-01T03:43:08.498Z,99856.72
2018-12-01T03:45:48.658Z,99859.14
2018-12-01T03:48:28.911Z,99857.56
2018-12-01T03:51:08.230Z,99849.98
2018-12-01T03:53:48.078Z,99839.98
2018-12-01T03:56:28.121Z,99839.74
2018-12-01T03:59:07.785Z,99844.62
2018-12-01T04:01:48.627Z,99840.39
2018-12-01T04:04:29.457Z,99829.97
2018-12-01T04:07:09.638Z,99824.84
2018-12-01T04:09:49.638Z,99824.24
2018-12-01T04:12:29.087Z,99818.00
2018-12-01T04:15:09.245Z,99825.05
2018-12-01T04:17:51.418Z,99813.61
2018-12-01T04:20:31.777Z,99812.53
2018-12-01T04:23:11.845Z,99809.26
2018-12-01T04:25:51.495Z,99800.30
2018-12-01T04:28:32.899Z,99792.27
2018-12-01T04:31:15.031Z,99788.67
2018-12-01T04:33:56.510Z,99789.51
2018-12-01T04:36:36.569Z,99782.91
2018-12-01T04:39:17.874Z,99780.30
2018-12-01T04:41:57.803Z,99784.88
2018-12-01T04:44:38.030Z,99764.28
2018-12-01T04:47:20.374Z,99757.59
2018-12-01T04:50:02.213Z,99758.57
2018-12-01T04:52:42.858Z,99762.77
2018-12-01T04:55:24.701Z,99759.24
2018-12-01T04:58:05.252Z,99761.30
2018-12-01T05:00:47.326Z,99753.75
2018-12-01T05:03:31.088Z,99742.82
2018-12-01T05:06:12.121Z,99742.95
2018-12-01T05:08:53.207Z,99742.66
2018-12-01T05:11:34.786Z,99740.55
2018-12-01T05:14:18.903Z,99743.79
2018-12-01T05:17:02.048Z,99732.09
2018-12-01T05:19:44.143Z,99730.50
2018-12-01T05:22:26.156Z,99720.99
2018-12-01T05:25:07.916Z,99719.72
2018-12-01T05:27:51.292Z,99712.97
2018-12-01T05:30:32.620Z,99710.63
2018-12-01T05:33:14.113Z,99707.33
2018-12-01T05:35:58.599Z,99710.77
2018-12-01T05:38:41.458Z,99708.23
2018-12-01T05:41:22.462Z,99703.81
2018-12-01T05:44:05.781Z,99701.50
2018-12-01T05:46:47.133Z,99696.78
2018-12-01T05:49:27.634Z,99695.73
2018-12-01T05:52:09.663Z,99690.92
2018-12-01T05:54:54.191Z,99686.27
2018-12-01T05:57:34.609Z,99691.68
2018-12-01T06:00:17.305Z,99695.51
2018-12-01T06:02:57.693Z,99687.69
2018-12-01T06:05:41.461Z,99682.38
2018-12-01T06:08:21.973Z,99684.55
2018-12-01T06:11:01.776Z,99684.11
2018-12-01T06:13:42.476Z,99682.81
2018-12-01T06:16:23.112Z,99683.41
2018-12-01T06:19:04.849Z,99670.00
2018-12-01T06:21:45.538Z,99664.52
2018-12-01T06:24:25.349Z,99665.30
2018-12-01T06:27:05.146Z,99664.81
2018-12-01T06:29:44.870Z,99662.81
2018-12-01T06:32:24.799Z,99660.69
2018-12-01T06:35:05.991Z,99654.84
2018-12-01T06:37:46.740Z,99659.15
2018-12-01T06:40:27.957Z,99662.81
2018-12-01T06:43:09.708Z,99654.77
2018-12-01T06:45:49.237Z,99656.20
2018-12-01T06:48:30.072Z,99651.33
2018-12-01T06:51:10.644Z,99639.34
2018-12-01T06:53:50.722Z,99642.27
2018-12-01T06:56:32.934Z,99630.29
2018-12-01T06:59:17.372Z,99629.98
2018-12-01T07:01:59.521Z,99620.84
2018-12-01T07:04:39.007Z,99623.59
2018-12-01T07:07:19.370Z,99614.97
2018-12-01T07:09:59.383Z,99612.74
2018-12-01T07:12:38.455Z,99610.18
2018-12-01T07:15:25.903Z,99605.39
2018-12-01T07:18:06.586Z,99599.77
2018-12-01T07:20:45.901Z,99595.67
2018-12-01T07:23:25.104Z,99588.67
2018-12-01T07:26:03.785Z,99586.97
2018-12-01T07:28:42.567Z,99584.52
2018-12-01T07:31:21.354Z,99579.87
2018-12-01T07:34:01.570Z,99574.61
2018-12-01T07:36:40.463Z,99573.56
2018-12-01T07:39:19.647Z,99561.94
2018-12-01T07:42:00.754Z,99558.67
2018-12-01T07:44:40.188Z,99545.78
2018-12-01T07:47:19.825Z,99545.17
2018-12-01T07:50:00.052Z,99544.88
2018-12-01T07:52:39.436Z,99546.32
2018-12-01T07:55:17.608Z,99530.06
2018-12-01T07:57:56.811Z,99536.87
2018-12-01T08:00:37.890Z,99529.59
2018-12-01T08:03:17.391Z,99532.16
2018-12-01T08:05:56.332Z,99522.03
2018-12-01T08:08:35.730Z,99527.52
2018-12-01T08:11:14.840Z,99518.52
2018-12-01T08:13:55.142Z,99515.52
2018-12-01T08:16:34.469Z,99510.51
2018-12-01T08:19:13.550Z,99507.73
2018-12-01T08:21:52.844Z,99505.56
2018-12-01T08:24:32.207Z,99503.27
2018-12-01T08:27:12.027Z,99501.61
2018-12-01T08:29:51.847Z,99503.45
2018-12-01T08:32:32.488Z,99501.06
2018-12-01T08:35:13.310Z,99503.23
2018-12-01T08:37:53.249Z,99496.52
2018-12-01T08:40:34.398Z,99492.67
2018-12-01T08:43:16.223Z,99489.24
2018-12-01T08:45:57.087Z,99486.03
2018-12-01T08:48:37.301Z,99491.13
2018-12-01T08:51:17.224Z,99492.91
2018-12-01T08:53:58.145Z,99491.27
2018-12-01T08:56:38.833Z,99486.84
2018-12-01T08:59:18.407Z,99493.95
2018-12-01T09:01:58.267Z,99486.78
2018-12-01T09:04:38.855Z,99493.64
2018-12-01T09:07:18.282Z,99485.70
2018-12-01T09:09:59.285Z,99496.50
2018-12-01T09:12:39.031Z,99487.21
2018-12-01T09:15:22.979Z,99479.44
2018-12-01T09:18:04.825Z,99482.27
2018-12-01T09:20:45.053Z,99466.79
2018-12-01T09:23:25.821Z,99477.35
2018-12-01T09:26:05.567Z,99473.59
2018-12-01T09:28:45.053Z,99469.41
2018-12-01T09:31:25.021Z,99472.02
2018-12-01T09:34:07.976Z,99467.15
2018-12-01T09:36:47.332Z,99469.98
2018-12-01T09:39:27.701Z,99463.95
2018-12-01T09:42:07.316Z,99459.45
2018-12-01T09:44:48.213Z,99467.37
2018-12-01T09:47:29.711Z,99468.95
2018-12-01T09:50:13.635Z,99467.45
2018-12-01T09:52:54.816Z,99461.15
2018-12-01T09:55:35.725Z,99459.53
2018-12-01T09:58:17.028Z,99453.25
2018-12-01T10:00:58.318Z,99441.56
2018-12-01T10:03:39.839Z,99448.91
2018-12-01T10:06:25.230Z,99446.64
2018-12-01T10:09:05.955Z,99433.86
2018-12-01T10:11:50.473Z,99432.14
2018-12-01T10:14:27.342Z,99425.93
2018-12-01T10:17:11.313Z,99427.49
2018-12-01T10:19:52.318Z,99426.07
2018-12-01T10:22:32.210Z,99427.73
2018-12-01T10:25:13.275Z,99423.59
2018-12-01T10:27:54.173Z,99420.92
2018-12-01T10:30:34.826Z,99409.45
2018-12-01T10:33:14.832Z,99406.41
2018-12-01T10:36:01.142Z,99406.55
2018-12-01T10:38:41.067Z,99414.92
2018-12-01T10:41:21.090Z,99415.89
2018-12-01T10:44:01.462Z,99409.31
2018-12-01T10:46:41.256Z,99422.55
2018-12-01T10:49:21.143Z,99418.27
2018-12-01T10:52:00.511Z,99416.78
2018-12-01T10:54:43.719Z,99403.78
2018-12-01T10:57:24.283Z,99411.41
2018-12-01T11:00:04.133Z,99403.69
2018-12-01T11:02:46.754Z,99404.02
2018-12-01T11:05:27.176Z,99403.55
2018-12-01T11:08:10.756Z,99410.74
2018-12-01T11:10:55.098Z,99403.55
2018-12-01T11:13:30.903Z,99401.75
2018-12-01T11:16:11.359Z,99412.83
2018-12-01T11:18:51.400Z,99401.75
2018-12-01T11:21:30.838Z,99399.66
2018-12-01T11:24:12.158Z,99403.23
2018-12-01T11:26:54.062Z,99400.94
2018-12-01T11:29:35.589Z,99392.77
2018-12-01T11:32:15.845Z,99389.42
2018-12-01T11:34:56.715Z,99387.99
2018-12-01T11:37:37.263Z,99382.27
2018-12-01T11:40:20.138Z,99384.01
2018-12-01T11:43:01.542Z,99376.97
2018-12-01T11:45:46.157Z,99375.87
2018-12-01T11:48:26.732Z,99368.61
2018-12-01T11:51:07.618Z,99365.45
2018-12-01T11:53:49.996Z,99366.22
2018-12-01T11:56:48.793Z,99360.67
2018-12-01T11:59:29.062Z,99357.89
2018-12-01T12:02:11.470Z,99350.20
2018-12-01T12:04:56.508Z,99353.55
2018-12-01T12:07:47.133Z,99348.84
2018-12-01T12:10:27.605Z,99350.63
2018-12-01T12:13:09.075Z,99337.85
2018-12-01T12:15:49.817Z,99338.90
2018-12-01T12:18:31.027Z,99334.69
2018-12-01T12:21:14.247Z,99328.25
2018-12-01T12:23:55.901Z,99325.64
2018-12-01T12:26:39.189Z,99327.95
2018-12-01T12:29:18.770Z,99320.17
2018-12-01T12:31:59.212Z,99317.34
2018-12-01T12:34:40.411Z,99323.83
2018-12-01T12:37:23.802Z,99319.04
2018-12-01T12:40:04.725Z,99310.73
2018-12-01T12:42:44.700Z,99309.83
2018-12-01T12:45:24.508Z,99307.13
2018-12-01T12:48:06.356Z,99309.16
2018-12-01T12:50:46.275Z,99310.78
2018-12-01T12:53:26.446Z,99310.05
2018-12-01T12:56:06.729Z,99303.87
2018-12-01T12:58:48.308Z,99309.39
2018-12-01T13:01:27.635Z,99306.91
2018-12-01T13:04:08.311Z,99305.31
2018-12-01T13:06:48.300Z,99296.10
2018-12-01T13:09:29.147Z,99307.18
2018-12-01T13:12:09.433Z,99299.41
2018-12-01T13:14:49.559Z,99301.80
2018-12-01T13:17:31.074Z,99302.75
2018-12-01T13:20:17.164Z,99304.23
2018-12-01T13:23:01.998Z,99308.09
2018-12-01T13:25:44.011Z,99303.09
2018-12-01T13:28:35.014Z,99306.39
2018-12-01T13:31:16.113Z,99308.88
2018-12-01T13:34:00.334Z,99308.44
2018-12-01T13:36:41.551Z,99302.36
2018-12-01T13:39:24.651Z,99307.40
2018-12-01T13:42:10.778Z,99297.63
2018-12-01T13:44:58.673Z,99297.45
2018-12-01T13:47:42.170Z,99311.48
2018-12-01T13:50:26.452Z,99298.31
2018-12-01T13:53:14.181Z,99291.02
2018-12-01T13:55:55.846Z,99287.72
2018-12-01T13:58:37.343Z,99282.77
2018-12-01T14:01:18.854Z,99281.71
2018-12-01T14:04:03.749Z,99279.31
2018-12-01T14:06:45.312Z,99280.78
2018-12-01T14:09:25.872Z,99284.12
2018-12-01T14:12:09.001Z,99279.55
2018-12-01T14:14:50.032Z,99288.51
2018-12-01T14:17:30.294Z,99284.72
2018-12-01T14:20:11.207Z,99271.87
2018-12-01T14:22:52.386Z,99271.81
2018-12-01T14:25:34.209Z,99270.09
2018-12-01T14:28:20.311Z,99269.22
2018-12-01T14:31:02.389Z,99268.54
2018-12-01T14:33:44.864Z,99255.70
2018-12-01T14:36:30.902Z,99256.16
2018-12-01T14:39:12.624Z,99253.08
2018-12-01T14:41:53.004Z,99249.45
2018-12-01T14:44:34.011Z,99261.73
2018-12-01T14:47:14.294Z,99245.03
2018-12-01T14:49:58.346Z,99250.91
2018-12-01T14:52:39.566Z,99254.73
2018-12-01T14:55:22.351Z,99241.65
2018-12-01T14:58:03.172Z,99234.43
2018-12-01T15:00:44.254Z,99230.75
2018-12-01T15:03:25.865Z,99237.66
2018-12-01T15:06:06.451Z,99223.89
2018-12-01T15:08:46.220Z,99222.77
2018-12-01T15:11:25.849Z,99227.22
2018-12-01T15:14:06.150Z,99225.05
2018-12-01T15:16:45.428Z,99225.05
2018-12-01T15:19:27.955Z,99227.16
2018-12-01T15:22:07.898Z,99225.59
2018-12-01T15:24:48.916Z,99214.95
2018-12-01T15:27:29.313Z,99211.96
2018-12-01T15:30:10.337Z,99218.41
2018-12-01T15:32:51.754Z,99216.80
2018-12-01T15:35:31.490Z,99216.92
2018-12-01T15:38:11.828Z,99217.88
2018-12-01T15:40:55.826Z,99210.68
2018-12-01T15:43:35.001Z,99213.71
2018-12-01T15:46:15.559Z,99194.32
2018-12-01T15:48:56.478Z,99197.12
2018-12-01T15:51:35.563Z,99201.00
2018-12-01T15:54:15.584Z,99183.57
2018-12-01T15:56:57.269Z,99180.64
2018-12-01T15:59:36.802Z,99177.12
2018-12-01T16:02:17.028Z,99175.80
2018-12-01T16:04:56.865Z,99171.89
2018-12-01T16:07:36.927Z,99182.72
2018-12-01T16:10:22.010Z,99176.16
2018-12-01T16:13:06.591Z,99164.98
2018-12-01T16:15:49.896Z,99163.56
2018-12-01T16:18:30.262Z,99165.01
2018-12-01T16:21:11.033Z,99163.20
2018-12-01T16:23:51.122Z,99165.14
2018-12-01T16:26:31.833Z,99165.41
2018-12-01T16:29:12.689Z,99162.90
2018-12-01T16:31:52.562Z,99160.69
2018-12-01T16:34:32.969Z,99163.78
2018-12-01T16:37:12.960Z,99158.75
2018-12-01T16:39:52.764Z,99155.83
2018-12-01T16:42:33.153Z,99158.39
2018-12-01T16:45:14.436Z,99156.65
2018-12-01T16:47:54.354Z,99156.84
2018-12-01T16:50:35.912Z,99161.69
2018-12-01T16:53:20.432Z,99150.50
2018-12-01T16:56:00.829Z,99154.37
2018-12-01T16:58:40.438Z,99149.17
2018-12-01T17:01:19.807Z,99144.70
2018-12-01T17:03:59.296Z,99148.28
2018-12-01T17:06:39.968Z,99140.08
2018-12-01T17:09:20.164Z,99151.61
2018-12-01T17:11:59.629Z,99154.11
2018-12-01T17:14:38.854Z,99159.41
2018-12-01T17:17:18.910Z,99159.08
2018-12-01T17:19:58.230Z,99157.58
2018-12-01T17:22:39.048Z,99152.70
2018-12-01T17:25:21.652Z,99157.72
2018-12-01T17:28:02.851Z,99152.00
2018-12-01T17:30:43.174Z,99150.71
2018-12-01T17:33:22.934Z,99152.91
2018-12-01T17:36:02.518Z,99150.30
2018-12-01T17:38:42.613Z,99154.53
2018-12-01T17:41:25.722Z,99150.19
2018-12-01T17:44:12.949Z,99156.94
2018-12-01T17:46:53.167Z,99157.44
2018-12-01T17:49:33.241Z,99159.19
2018-12-01T17:52:13.377Z,99156.67
2018-12-01T17:54:52.820Z,99159.67
2018-12-01T17:57:33.484Z,99157.26
2018-12-01T18:00:17.192Z,99155.91
2018-12-01T18:02:58.345Z,99145.42
2018-12-01T18:05:46.701Z,99150.59
2018-12-01T18:08:28.251Z,99139.80
2018-12-01T18:11:06.732Z,99134.70
2018-12-01T18:13:46.886Z,99141.73
2018-12-01T18:16:35.314Z,99141.53
2018-12-01T18:19:14.342Z,99140.89
2018-12-01T18:21:53.512Z,99137.25
2018-12-01T18:24:32.831Z,99135.69
2018-12-01T18:27:12.353Z,99128.78
2018-12-01T18:29:53.053Z,99126.91
2018-12-01T18:32:33.781Z,99126.48
2018-12-01T18:35:14.138Z,99118.41
2018-12-01T18:37:53.111Z,99121.93
2018-12-01T18:40:33.782Z,99121.77
2018-12-01T18:43:13.330Z,99120.34
2018-12-01T18:45:55.292Z,99116.24
2018-12-01T18:48:34.862Z,99120.12
2018-12-01T18:51:15.242Z,99106.11
2018-12-01T18:53:54.532Z,99109.83
2018-12-01T18:56:34.355Z,99102.86
2018-12-01T18:59:13.521Z,99099.86
2018-12-01T19:01:54.988Z,99099.92
2018-12-01T19:04:35.628Z,99097.03
2018-12-01T19:07:15.127Z,99096.21
2018-12-01T19:09:53.978Z,99097.62
2018-12-01T19:15:12.407Z,99092.36
2018-12-01T19:17:53.635Z,99085.55
2018-12-01T19:20:35.320Z,99082.77
2018-12-01T19:23:23.151Z,99085.88
2018-12-01T19:26:03.404Z,99083.68
2018-12-01T19:28:43.968Z,99078.48
2018-12-01T19:31:26.988Z,99068.69
2018-12-01T19:34:08.891Z,99072.89
2018-12-01T19:36:49.193Z,99065.42
2018-12-01T19:39:29.406Z,99065.82
2018-12-01T19:42:10.282Z,99070.56
2018-12-01T19:44:50.772Z,99065.09
2018-12-01T19:47:31.632Z,99060.92
2018-12-01T19:50:18.456Z,99062.90
2018-12-01T19:52:59.116Z,99062.14
2018-12-01T19:55:40.023Z,99052.38
2018-12-01T19:58:26.883Z,99051.91
2018-12-01T20:01:07.359Z,99053.26
2018-12-01T20:03:48.840Z,99054.08
2018-12-01T20:06:30.213Z,99053.12
2018-12-01T20:09:12.722Z,99048.03
2018-12-01T20:11:53.175Z,99052.47
2018-12-01T20:14:34.487Z,99042.18
2018-12-01T20:17:16.441Z,99038.45
2018-12-01T20:19:57.316Z,99038.33
2018-12-01T20:22:39.469Z,99036.34
2018-12-01T20:25:21.027Z,99042.86
2018-12-01T20:28:00.104Z,99036.41
2018-12-01T20:30:39.048Z,99048.89
2018-12-01T20:33:17.939Z,99043.98
2018-12-01T20:36:02.465Z,99042.50
2018-12-01T20:38:54.735Z,99035.91
2018-12-01T20:41:33.735Z,99033.34
2018-12-01T20:44:13.363Z,99029.69
2018-12-01T20:46:52.224Z,99021.36
2018-12-01T20:49:31.123Z,99023.63
2018-12-01T20:52:10.272Z,99014.23
2018-12-01T20:54:52.413Z,99023.67
2018-12-01T20:57:34.274Z,99025.38
2018-12-01T21:00:15.569Z,99026.17
2018-12-01T21:02:55.324Z,99026.72
2018-12-01T21:05:35.718Z,99030.05
2018-12-01T21:08:14.779Z,99027.65
2018-12-01T21:10:59.176Z,99020.91
2018-12-01T21:13:37.811Z,99021.39
2018-12-01T21:16:17.603Z,99018.99
2018-12-01T21:18:57.775Z,99016.23
2018-12-01T21:21:38.218Z,99019.66
2018-12-01T21:24:22.785Z,99018.84
2018-12-01T21:27:03.605Z,99012.09
2018-12-01T21:29:45.238Z,99009.59
2018-12-01T21:32:29.248Z,99003.67
2018-12-01T21:35:08.126Z,99001.08
2018-12-01T21:37:46.852Z,99006.58
2018-12-01T21:40:27.491Z,99010.25
2018-12-01T21:43:07.009Z,99009.59
2018-12-01T21:45:45.791Z,99014.03
2018-12-01T21:48:24.540Z,99009.86
2018-12-01T21:51:03.376Z,99004.89
2018-12-01T21:53:43.594Z,99000.78
2018-12-01T21:56:22.253Z,98998.88
2018-12-01T21:59:00.949Z,98996.22
2018-12-01T22:01:41.658Z,98990.43
2018-12-01T22:04:21.149Z,98985.34
2018-12-01T22:07:00.169Z,98993.42
2018-12-01T22:09:38.994Z,98988.33
2018-12-01T22:12:17.856Z,98994.37
2018-12-01T22:14:56.948Z,98992.09
2018-12-01T22:17:36.790Z,99005.34
2018-12-01T22:20:21.101Z,99005.08
2018-12-01T22:22:59.978Z,99007.31
2018-12-01T22:25:39.783Z,99009.50
2018-12-01T22:28:20.434Z,99000.05
2018-12-01T22:31:01.393Z,99015.45
2018-12-01T22:33:40.217Z,99013.97
2018-12-01T22:36:19.069Z,99013.50
2018-12-01T22:38:58.368Z,99014.72
2018-12-01T22:41:37.136Z,99014.47
2018-12-01T22:44:15.825Z,99013.62
2018-12-01T22:46:55.859Z,99000.31
2018-12-01T22:49:34.596Z,99003.89
2018-12-01T22:52:14.063Z,98996.77
2018-12-01T22:54:52.729Z,98999.31
2018-12-01T22:57:31.816Z,98993.50
2018-12-01T23:00:15.945Z,98990.33
2018-12-01T23:02:55.580Z,98978.39
2018-12-01T23:05:51.956Z,98977.22
2018-12-01T23:08:33.572Z,98987.73
2018-12-01T23:11:13.955Z,98992.36
2018-12-01T23:13:54.247Z,98989.20
2018-12-01T23:16:34.023Z,98992.59
2018-12-01T23:19:17.469Z,98992.41
2018-12-01T23:21:56.374Z,99003.30
2018-12-01T23:24:35.687Z,99005.30
2018-12-01T23:27:14.678Z,99000.02
2018-12-01T23:29:53.923Z,99011.98
2018-12-01T23:32:32.466Z,99013.24
2018-12-01T23:35:11.189Z,99009.17
2018-12-01T23:37:50.256Z,99022.27
2018-12-01T23:40:29.267Z,99015.95
2018-12-01T23:43:09.099Z,99014.73
2018-12-01T23:45:49.776Z,99008.15
2018-12-01T23:48:29.000Z,99011.27
2018-12-01T23:51:08.556Z,99017.27
2018-12-01T23:53:47.519Z,99015.91
2018-12-01T23:56:28.244Z,99009.99
2018-12-01T23:59:14.231Z,99007.00
